Thailine 9 — 9WGP9 — position and weather

sailwx.info

Track history (hours):
 
Tides and Currents Weather Stations Pressure Air Temp Water Temp Dewpoint Dewpoint Depression Visibility Wind Speed Wind Dir Waves Ship Positions

Thailine 9

Last reported at 2017-Oct-18 12:00 UTC. Time now 2017-Oct-20 09:02 UTC.
Position N 34°33' E 134°45'.

Length 113 m; draft 5.7 m.

Type: Ship. MMSI: 533791000.

Date/timePositionNaut miles runAvg speedWind from/ knotsBaromVisibWave heightAir tempDewpointWater temp
2017-Oct-18 12:00N 34°33' E 134°45'815.1
2017-Oct-18 11:29N 34°36' E 134°54'714.3
2017-Oct-18 11:00N 34°37' E 135°02'611.6
2017-Oct-18 10:30N 34°31' E 135°04'913.2
2017-Oct-18 09:48N 34°22' E 135°01'513.3
2017-Oct-18 09:26N 34°18' E 134°59'613.8
2017-Oct-18 09:00N 34°12' E 134°59'713.1
2017-Oct-18 08:31N 34°05' E 134°60'21910.9
2017-Oct-17 12:22N 34°49' E 139°19'810.8
2017-Oct-17 11:38N 34°51' E 139°29'413.2
2017-Oct-17 11:20N 34°51' E 139°33'  
2017-Oct-12 13:26N 35°06' E 140°23'3212.9
2017-Oct-12 10:56N 34°51' E 139°47'613.2
2017-Oct-12 10:30N 34°57' E 139°44'612.0
2017-Oct-12 10:00N 35°02' E 139°43'611.7
2017-Oct-12 09:30N 35°08' E 139°45'612.0
2017-Oct-12 09:00N 35°14' E 139°46'612.3
2017-Oct-12 08:30N 35°19' E 139°43'612.2
2017-Oct-12 08:00N 35°25' E 139°42'2 4.7
2017-Oct-12 07:31N 35°27' E 139°41'0 0.3
2017-Oct-12 07:00N 35°27' E 139°41'0 0.0
2017-Oct-12 06:30N 35°27' E 139°41'0 0.0
2017-Oct-12 06:00N 35°27' E 139°41'0 0.0
2017-Oct-12 05:30N 35°27' E 139°41'0 0.0
2017-Oct-12 05:00N 35°27' E 139°41'0 0.0
2017-Oct-12 04:30N 35°27' E 139°41'0 0.0
2017-Oct-12 04:00N 35°27' E 139°41'0 0.0
2017-Oct-12 03:30N 35°27' E 139°41'0 0.0
2017-Oct-12 03:00N 35°27' E 139°41'0 0.0
2017-Oct-12 02:30N 35°27' E 139°41'0 0.0
2017-Oct-12 02:00N 35°27' E 139°41'0 0.0
2017-Oct-12 01:30N 35°27' E 139°41'0 0.0
2017-Oct-11 23:45N 35°27' E 139°41'0 0.0
2017-Oct-11 21:51N 35°27' E 139°41'1 2.2
2017-Oct-11 21:14N 35°26' E 139°42'0 0.0
2017-Oct-11 18:41N 35°26' E 139°42'0 0.0
2017-Oct-11 17:41N 35°26' E 139°42'0 0.0
2017-Oct-11 17:29N 35°26' E 139°42'0 0.0
2017-Oct-11 16:59N 35°26' E 139°42'10 0.3
2017-Oct-10 07:28N 35°22' E 139°53'0 0.0
2017-Oct-10 06:58N 35°22' E 139°53'0 0.0
2017-Oct-10 06:28N 35°22' E 139°53'0 0.0
2017-Oct-10 05:58N 35°22' E 139°53'0 0.0
2017-Oct-10 05:28N 35°22' E 139°53'0 0.0
2017-Oct-10 04:58N 35°22' E 139°53'0 0.0
2017-Oct-10 04:28N 35°22' E 139°53'0 0.0
2017-Oct-10 03:58N 35°22' E 139°53'0 0.0
2017-Oct-10 03:28N 35°22' E 139°53'0 0.0
2017-Oct-10 02:58N 35°22' E 139°53'0 0.0
2017-Oct-10 02:28N 35°22' E 139°53'0 0.0
2017-Oct-10 01:58N 35°22' E 139°53'0 0.0
2017-Oct-10 01:28N 35°22' E 139°53'0 0.0
2017-Oct-10 00:58N 35°22' E 139°53'0 0.0
2017-Oct-10 00:28N 35°22' E 139°53'0 0.0
2017-Oct-09 23:58N 35°22' E 139°53'0 0.0
2017-Oct-09 23:28N 35°22' E 139°53'0 0.0
2017-Oct-09 22:58N 35°22' E 139°53'0 0.0
2017-Oct-09 22:22N 35°22' E 139°53'2 2.0
2017-Oct-09 21:12N 35°23' E 139°51'1 0.1
2017-Oct-09 14:55N 35°24' E 139°50'0 0.0
2017-Oct-09 12:01N 35°24' E 139°50'0 0.5
2017-Oct-09 11:55N 35°24' E 139°50'0 0.0
2017-Oct-09 10:49N 35°24' E 139°50'0 0.0
2017-Oct-09 10:19N 35°24' E 139°50'0 0.0
2017-Oct-08 20:58N 35°23' E 139°50'0 0.0
2017-Oct-08 20:28N 35°23' E 139°50'0 0.0
2017-Oct-08 19:58N 35°23' E 139°50'0 0.0
2017-Oct-08 19:28N 35°23' E 139°50'0 0.0
2017-Oct-08 18:55N 35°23' E 139°50'0 0.1
2017-Oct-08 18:28N 35°23' E 139°50'0 0.1
2017-Oct-08 17:58N 35°23' E 139°50'0 0.0
2017-Oct-08 17:22N 35°23' E 139°50'0 0.1
2017-Oct-08 16:52N 35°23' E 139°50'0 0.0
2017-Oct-08 16:22N 35°23' E 139°50'0 0.0
2017-Oct-08 15:58N 35°23' E 139°50'0 0.0
2017-Oct-08 15:28N 35°23' E 139°50'0 0.0
2017-Oct-08 14:58N 35°23' E 139°50'0 0.0
2017-Oct-08 14:28N 35°23' E 139°50'0 0.0
2017-Oct-08 13:58N 35°23' E 139°50'0 0.0
2017-Oct-08 13:28N 35°23' E 139°50'0 0.0
2017-Oct-08 12:58N 35°23' E 139°50'0 0.0
2017-Oct-08 12:28N 35°23' E 139°50'  
Track history (hours):
 
Tides and Currents Weather Stations Pressure Air Temp Water Temp Dewpoint Dewpoint Depression Visibility Wind Speed Wind Dir Waves Ship Positions

Thailine 9

Last reported at 2017-Oct-18 12:00 UTC. Time now 2017-Oct-20 09:02 UTC.
Position N 34°33' E 134°45'.

Length 113 m; draft 5.7 m.

Type: Ship. MMSI: 533791000.

Date/timePositionNaut miles runAvg speedWind from/ knotsBaromVisibWave heightAir tempDewpointWater temp
2017-Oct-18 12:00N 34°33' E 134°45'815.1
2017-Oct-18 11:29N 34°36' E 134°54'714.3
2017-Oct-18 11:00N 34°37' E 135°02'611.6
2017-Oct-18 10:30N 34°31' E 135°04'913.2
2017-Oct-18 09:48N 34°22' E 135°01'513.3
2017-Oct-18 09:26N 34°18' E 134°59'613.8
2017-Oct-18 09:00N 34°12' E 134°59'713.1
2017-Oct-18 08:31N 34°05' E 134°60'21910.9
2017-Oct-17 12:22N 34°49' E 139°19'810.8
2017-Oct-17 11:38N 34°51' E 139°29'413.2
2017-Oct-17 11:20N 34°51' E 139°33'  
2017-Oct-12 13:26N 35°06' E 140°23'3212.9
2017-Oct-12 10:56N 34°51' E 139°47'613.2
2017-Oct-12 10:30N 34°57' E 139°44'612.0
2017-Oct-12 10:00N 35°02' E 139°43'611.7
2017-Oct-12 09:30N 35°08' E 139°45'612.0
2017-Oct-12 09:00N 35°14' E 139°46'612.3
2017-Oct-12 08:30N 35°19' E 139°43'612.2
2017-Oct-12 08:00N 35°25' E 139°42'2 4.7
2017-Oct-12 07:31N 35°27' E 139°41'0 0.3
2017-Oct-12 07:00N 35°27' E 139°41'0 0.0
2017-Oct-12 06:30N 35°27' E 139°41'0 0.0
2017-Oct-12 06:00N 35°27' E 139°41'0 0.0
2017-Oct-12 05:30N 35°27' E 139°41'0 0.0
2017-Oct-12 05:00N 35°27' E 139°41'0 0.0
2017-Oct-12 04:30N 35°27' E 139°41'0 0.0
2017-Oct-12 04:00N 35°27' E 139°41'0 0.0
2017-Oct-12 03:30N 35°27' E 139°41'0 0.0
2017-Oct-12 03:00N 35°27' E 139°41'0 0.0
2017-Oct-12 02:30N 35°27' E 139°41'0 0.0
2017-Oct-12 02:00N 35°27' E 139°41'0 0.0
2017-Oct-12 01:30N 35°27' E 139°41'0 0.0
2017-Oct-11 23:45N 35°27' E 139°41'0 0.0
2017-Oct-11 21:51N 35°27' E 139°41'1 2.2
2017-Oct-11 21:14N 35°26' E 139°42'0 0.0
2017-Oct-11 18:41N 35°26' E 139°42'0 0.0
2017-Oct-11 17:41N 35°26' E 139°42'0 0.0
2017-Oct-11 17:29N 35°26' E 139°42'0 0.0
2017-Oct-11 16:59N 35°26' E 139°42'10 0.3
2017-Oct-10 07:28N 35°22' E 139°53'0 0.0
2017-Oct-10 06:58N 35°22' E 139°53'0 0.0
2017-Oct-10 06:28N 35°22' E 139°53'0 0.0
2017-Oct-10 05:58N 35°22' E 139°53'0 0.0
2017-Oct-10 05:28N 35°22' E 139°53'0 0.0
2017-Oct-10 04:58N 35°22' E 139°53'0 0.0
2017-Oct-10 04:28N 35°22' E 139°53'0 0.0
2017-Oct-10 03:58N 35°22' E 139°53'0 0.0
2017-Oct-10 03:28N 35°22' E 139°53'0 0.0
2017-Oct-10 02:58N 35°22' E 139°53'0 0.0
2017-Oct-10 02:28N 35°22' E 139°53'0 0.0
2017-Oct-10 01:58N 35°22' E 139°53'0 0.0
2017-Oct-10 01:28N 35°22' E 139°53'0 0.0
2017-Oct-10 00:58N 35°22' E 139°53'0 0.0
2017-Oct-10 00:28N 35°22' E 139°53'0 0.0
2017-Oct-09 23:58N 35°22' E 139°53'0 0.0
2017-Oct-09 23:28N 35°22' E 139°53'0 0.0
2017-Oct-09 22:58N 35°22' E 139°53'0 0.0
2017-Oct-09 22:22N 35°22' E 139°53'2 2.0
2017-Oct-09 21:12N 35°23' E 139°51'1 0.1
2017-Oct-09 14:55N 35°24' E 139°50'0 0.0
2017-Oct-09 12:01N 35°24' E 139°50'0 0.5
2017-Oct-09 11:55N 35°24' E 139°50'0 0.0
2017-Oct-09 10:49N 35°24' E 139°50'0 0.0
2017-Oct-09 10:19N 35°24' E 139°50'0 0.0
2017-Oct-08 20:58N 35°23' E 139°50'0 0.0
2017-Oct-08 20:28N 35°23' E 139°50'0 0.0
2017-Oct-08 19:58N 35°23' E 139°50'0 0.0
2017-Oct-08 19:28N 35°23' E 139°50'0 0.0
2017-Oct-08 18:55N 35°23' E 139°50'0 0.1
2017-Oct-08 18:28N 35°23' E 139°50'0 0.1
2017-Oct-08 17:58N 35°23' E 139°50'0 0.0
2017-Oct-08 17:22N 35°23' E 139°50'0 0.1
2017-Oct-08 16:52N 35°23' E 139°50'0 0.0
2017-Oct-08 16:22N 35°23' E 139°50'0 0.0
2017-Oct-08 15:58N 35°23' E 139°50'0 0.0
2017-Oct-08 15:28N 35°23' E 139°50'0 0.0
2017-Oct-08 14:58N 35°23' E 139°50'0 0.0
2017-Oct-08 14:28N 35°23' E 139°50'0 0.0
2017-Oct-08 13:58N 35°23' E 139°50'0 0.0
2017-Oct-08 13:28N 35°23' E 139°50'0 0.0
2017-Oct-08 12:58N 35°23' E 139°50'0 0.0
2017-Oct-08 12:28N 35°23' E 139°50'  

Dump ship's entire track history